This is the latest recevied weather packets stored in our database for station/object WB5HZM-3. If no packets are shown the sender has not sent any weather packets the latest 10 day(s).
| Time | Temp. | Humidity | Pressure | Rain* | Wind** | Luminosity | Snow |
|---|---|---|---|---|---|---|---|
| 1777627407 | 17.78° C | 86% | 1013.5 hPa | 0 mm | - | - | - |
| 1777626804 | 17.78° C | 86% | 1013.2 hPa | 0 mm | - | - | - |
| 1777626197 | 17.78° C | 86% | 1013.8 hPa | 0 mm | - | - | - |
| 1777625610 | 17.78° C | 86% | 1013.8 hPa | 0 mm | - | - | - |
| 1777625003 | 17.22° C | 86% | 1013.3 hPa | 0 mm | - | - | - |
| 1777624400 | 17.78° C | 86% | 1013.1 hPa | 0 mm | - | - | - |
| 1777623813 | 17.78° C | 86% | 1013.1 hPa | 0 mm | - | - | - |
| 1777623205 | 17.78° C | 86% | 1013.4 hPa | 0 mm | - | - | - |
| 1777622602 | 17.22° C | 86% | 1013.3 hPa | 0 mm | - | - | - |
| 1777621995 | 17.78° C | 86% | 1013.8 hPa | 0 mm | - | - | - |
| 1777620801 | 17.78° C | 86% | 1013.2 hPa | 0 mm | - | - | - |
| 1777620198 | 17.78° C | 86% | 1012.3 hPa | 0 mm | - | - | - |
| 1777619611 | 17.78° C | 86% | 1013 hPa | 0 mm | - | - | - |
| 1777619004 | 17.78° C | 86% | 1013.4 hPa | 0 mm | - | - | - |
| 1777618402 | 17.78° C | 86% | 1013.5 hPa | 0 mm | - | - | - |
| 1777617794 | 17.78° C | 86% | 1013.5 hPa | 0 mm | - | - | - |
| 1777617207 | 17.78° C | 86% | 1013.8 hPa | 0 mm | - | - | - |
| 1777616600 | 18.33° C | 86% | 1013.7 hPa | 0 mm | - | - | - |
| 1777615997 | 18.33° C | 86% | 1014 hPa | 0 mm | - | - | - |
| 1777615410 | 18.33° C | 86% | 1013.9 hPa | 0 mm | - | - | - |
| 1777614201 | 19.44° C | 86% | 1015.4 hPa | 0 mm | - | - | - |
| 1777613594 | 18.89° C | 86% | 1015.3 hPa | 0 mm | - | - | - |
| 1777613008 | 18.89° C | 86% | 1014.9 hPa | 0 mm | - | - | - |
| 1777612403 | 18.89° C | 86% | 1015 hPa | 0 mm | - | - | - |
| 1777611802 | 18.89° C | 86% | 1015 hPa | 0 mm | - | - | - |
* Rain latest hour (hover to see other rain measurements)
** Current wind speed in m/s (hover to see current wind gust speed)